Time;durP1;ratioP1;P1;durP2;ratioP2;P2;SDS_P1;SDS_P2;PMS_P1;PMS_P2;Temp;Humidity;BMP_temperature;BMP_pressure;BME280_temperature;BME280_humidity;BME280_pressure;Samples;Min_cycle;Max_cycle;Signal;HPM_P1;HPM_P2
2021/01/28 00:00:33;;;;;;;6.22;0.60;;;;;;;26.30;34.81;98039.84;4955179;28;20639;-58
2021/01/28 00:03:00;;;;;;;1.20;0.50;;;;;;;26.22;34.74;98036.25;4954777;28;20230;-61
2021/01/28 00:05:28;;;;;;;1.35;0.68;;;;;;;26.22;35.11;98038.94;4953952;28;20262;-62
2021/01/28 00:07:55;;;;;;;2.28;0.75;;;;;;;26.17;35.28;98035.19;4954828;28;20227;-62
2021/01/28 00:10:23;;;;;;;2.90;1.02;;;;;;;26.16;35.19;98037.06;4954197;28;20211;-61
2021/01/28 00:12:49;;;;;;;1.40;0.70;;;;;;;26.15;34.88;98038.06;4954323;28;20309;-62
2021/01/28 00:15:17;;;;;;;0.73;0.70;;;;;;;26.13;35.03;98031.22;4952154;28;20666;-62
2021/01/28 00:17:43;;;;;;;1.13;0.68;;;;;;;26.14;34.47;98032.91;4954914;28;20253;-62
2021/01/28 00:20:13;;;;;;;1.05;0.50;;;;;;;26.04;34.74;98022.50;4953514;28;20213;-62
2021/01/28 00:22:39;;;;;;;0.80;0.52;;;;;;;25.98;34.91;98020.59;4954704;28;20226;-62
2021/01/28 00:25:08;;;;;;;1.85;0.60;;;;;;;25.97;35.40;98027.81;4954393;28;20261;-61
2021/01/28 00:27:34;;;;;;;0.73;0.70;;;;;;;25.91;35.26;98020.50;4952481;28;20231;-61
2021/01/28 00:30:00;;;;;;;2.25;0.60;;;;;;;25.87;35.51;98019.25;4952439;28;20206;-61
2021/01/28 00:32:26;;;;;;;2.13;0.63;;;;;;;25.83;34.56;98021.50;4953131;28;20238;-61
2021/01/28 00:34:52;;;;;;;0.98;0.40;;;;;;;25.83;35.14;98015.28;4953570;28;20298;-61
2021/01/28 00:37:18;;;;;;;1.92;0.70;;;;;;;25.80;35.07;98008.47;4952269;28;20261;-61
2021/01/28 00:39:44;;;;;;;2.42;0.73;;;;;;;25.79;34.62;98022.88;4952837;28;20207;-60
2021/01/28 00:42:11;;;;;;;1.20;0.68;;;;;;;25.80;35.33;98016.50;4952334;28;20231;-61
2021/01/28 00:44:39;;;;;;;0.80;0.50;;;;;;;25.83;34.61;98016.13;4950827;28;20250;-62
2021/01/28 00:47:05;;;;;;;0.70;0.60;;;;;;;25.83;35.21;97999.22;4950948;28;20236;-62
2021/01/28 00:49:31;;;;;;;2.72;0.80;;;;;;;25.83;34.70;97994.72;4952203;28;20233;-62
2021/01/28 00:51:57;;;;;;;1.98;0.63;;;;;;;25.81;35.75;97998.59;4951377;28;20227;-63
2021/01/28 00:54:23;;;;;;;1.58;0.40;;;;;;;25.83;35.27;97986.69;4952338;28;20359;-60
2021/01/28 00:56:49;;;;;;;1.15;0.70;;;;;;;25.83;34.70;97991.19;4953115;28;20235;-62
2021/01/28 00:59:16;;;;;;;2.33;0.57;;;;;;;25.85;35.13;97995.34;4952373;28;20206;-62
2021/01/28 01:01:42;;;;;;;2.63;0.60;;;;;;;25.89;34.83;97986.94;4951418;28;20299;-62
2021/01/28 01:04:08;;;;;;;0.65;0.47;;;;;;;25.82;35.63;97981.53;4953751;28;20235;-62
2021/01/28 01:06:34;;;;;;;1.92;0.60;;;;;;;25.84;34.74;97974.94;4952108;28;20214;-61
2021/01/28 01:09:00;;;;;;;1.48;0.60;;;;;;;25.72;35.32;97976.50;4952008;28;20218;-58
2021/01/28 01:11:27;;;;;;;2.45;0.70;;;;;;;25.78;34.86;97969.53;4952143;28;20333;-60
2021/01/28 01:13:53;;;;;;;1.88;0.82;;;;;;;25.70;35.09;97967.81;4951431;28;20203;-60
2021/01/28 01:16:20;;;;;;;1.75;0.63;;;;;;;25.72;35.17;97965.78;4950870;28;20232;-63
2021/01/28 01:18:46;;;;;;;0.50;0.50;;;;;;;25.74;35.85;97965.59;4953324;28;20238;-61
2021/01/28 01:21:13;;;;;;;1.35;0.50;;;;;;;25.68;34.91;97967.19;4951562;28;20237;-61
2021/01/28 01:23:39;;;;;;;1.23;0.55;;;;;;;25.73;35.10;97966.59;4951606;28;20214;-61
2021/01/28 01:26:05;;;;;;;1.40;0.40;;;;;;;25.72;34.74;97971.13;4953371;28;20206;-61
2021/01/28 01:28:32;;;;;;;1.13;0.40;;;;;;;25.69;35.36;97971.50;4952782;28;20222;-61
2021/01/28 01:30:58;;;;;;;1.58;0.57;;;;;;;25.67;34.89;97969.03;4950951;28;20669;-61
2021/01/28 01:33:25;;;;;;;0.65;0.43;;;;;;;25.66;35.75;97967.38;4951915;28;20249;-62
2021/01/28 01:35:51;;;;;;;1.67;0.70;;;;;;;25.67;34.78;97963.66;4951326;28;20261;-62
2021/01/28 01:38:18;;;;;;;0.77;0.50;;;;;;;25.66;35.41;97966.53;4950632;28;20308;-62
2021/01/28 01:40:49;;;;;;;0.93;0.57;;;;;;;25.68;34.81;97959.16;4952051;28;20202;-61
2021/01/28 01:43:16;;;;;;;1.50;0.68;;;;;;;25.65;34.90;97956.88;4952999;28;20606;-61
2021/01/28 01:45:45;;;;;;;0.68;0.50;;;;;;;25.66;35.13;97945.97;4952935;28;20214;-60
2021/01/28 01:48:17;;;;;;;0.73;0.50;;;;;;;25.72;35.73;97954.25;4952114;28;20275;-62
2021/01/28 01:50:51;;;;;;;0.82;0.52;;;;;;;25.64;35.20;97944.50;4952754;28;20327;-61
2021/01/28 01:53:22;;;;;;;1.05;0.70;;;;;;;25.67;34.77;97942.25;4953375;28;20245;-60
2021/01/28 01:55:53;;;;;;;0.88;0.60;;;;;;;25.57;35.26;97935.59;4953606;28;20206;-61
2021/01/28 01:58:38;;;;;;;1.13;0.50;;;;;;;25.63;34.86;97926.75;4952984;28;20583;-61
2021/01/28 02:01:04;;;;;;;2.03;0.55;;;;;;;25.64;35.63;97928.44;4953539;28;20230;-61
2021/01/28 02:03:34;;;;;;;0.82;0.60;;;;;;;25.56;35.88;97918.69;4950103;28;20207;-58
2021/01/28 02:06:14;;;;;;;0.93;0.50;;;;;;;25.31;35.95;97899.53;4952166;28;20215;-60
2021/01/28 02:08:40;;;;;;;0.70;0.47;;;;;;;25.30;35.95;97900.56;4953260;28;20733;-59
2021/01/28 02:11:09;;;;;;;3.47;0.55;;;;;;;25.38;35.51;97895.09;4951582;28;20788;-62
2021/01/28 02:13:35;;;;;;;1.48;0.50;;;;;;;25.34;35.09;97898.31;4951855;28;20217;-61
2021/01/28 02:16:02;;;;;;;0.68;0.50;;;;;;;25.43;35.65;97889.13;4950923;28;20237;-62
2021/01/28 02:18:29;;;;;;;1.05;0.50;;;;;;;25.57;34.54;97890.91;4950625;28;20205;-58
2021/01/28 02:21:14;;;;;;;0.95;0.40;;;;;;;25.49;34.94;97886.50;4951540;28;20217;-60
2021/01/28 02:23:49;;;;;;;2.08;0.50;;;;;;;25.48;35.69;97882.19;4952945;28;20305;-61
2021/01/28 02:26:16;;;;;;;0.38;0.38;;;;;;;25.53;35.14;97880.78;4953630;28;20206;-62
2021/01/28 02:28:43;;;;;;;0.93;0.47;;;;;;;25.48;35.30;97876.03;4952951;28;20226;-61
2021/01/28 02:31:10;;;;;;;0.40;0.40;;;;;;;25.36;35.10;97875.69;4951937;28;20253;-62
2021/01/28 02:33:43;;;;;;;0.60;0.40;;;;;;;25.56;35.13;97869.69;4952538;28;20308;-62
2021/01/28 02:36:11;;;;;;;0.63;0.50;;;;;;;25.54;35.50;97861.84;4952068;28;20211;-62
2021/01/28 02:38:37;;;;;;;0.80;0.40;;;;;;;25.37;35.61;97852.47;4952480;28;20214;-62
2021/01/28 02:41:04;;;;;;;0.30;0.30;;;;;;;25.47;35.82;97845.75;4950429;28;20207;-60
2021/01/28 02:43:31;;;;;;;0.40;0.40;;;;;;;25.59;35.07;97851.38;4951550;28;20210;-61
2021/01/28 02:46:04;;;;;;;0.93;0.60;;;;;;;25.56;34.58;97842.91;4953716;28;20214;-61
2021/01/28 02:48:30;;;;;;;0.65;0.40;;;;;;;25.58;34.61;97840.88;4955919;28;20231;-62
2021/01/28 02:50:56;;;;;;;1.02;0.60;;;;;;;25.52;35.47;97836.31;4953536;28;20215;-62
2021/01/28 02:53:22;;;;;;;0.75;0.32;;;;;;;25.48;35.22;97841.22;4955831;28;20210;-61
2021/01/28 02:55:48;;;;;;;1.20;0.40;;;;;;;25.39;34.95;97845.88;4954030;28;20370;-61
2021/01/28 02:58:15;;;;;;;0.40;0.40;;;;;;;25.51;35.69;97842.69;4955415;28;20211;-61
2021/01/28 03:00:42;;;;;;;0.95;0.60;;;;;;;25.56;34.48;97834.88;4953405;28;20222;-60
2021/01/28 03:03:13;;;;;;;1.33;0.80;;;;;;;25.42;35.72;97831.31;4953939;28;20238;-61
2021/01/28 03:05:39;;;;;;;2.05;0.70;;;;;;;25.45;35.54;97829.06;4956207;28;20258;-61
2021/01/28 03:08:05;;;;;;;0.77;0.50;;;;;;;25.49;35.15;97818.78;4954946;28;20317;-61
2021/01/28 03:10:32;;;;;;;0.73;0.40;;;;;;;25.30;35.88;97817.63;4955670;28;20203;-61
2021/01/28 03:12:59;;;;;;;0.40;0.30;;;;;;;25.32;34.88;97815.56;4955623;28;20333;-61
2021/01/28 03:15:25;;;;;;;0.60;0.40;;;;;;;25.39;35.69;97805.75;4953120;28;20207;-61
2021/01/28 03:17:53;;;;;;;0.52;0.40;;;;;;;25.41;35.12;97801.00;4953461;28;20633;-62
2021/01/28 03:20:20;;;;;;;0.40;0.40;;;;;;;25.28;35.53;97792.88;4953950;28;20430;-59
2021/01/28 03:22:46;;;;;;;0.43;0.40;;;;;;;25.35;34.90;97793.78;4954138;28;20230;-61
2021/01/28 03:25:16;;;;;;;3.05;0.55;;;;;;;25.30;35.22;97796.22;4955151;28;20699;-58
2021/01/28 03:27:42;;;;;;;4.95;0.50;;;;;;;25.28;35.08;97798.25;4954931;28;20609;-61
2021/01/28 03:30:11;;;;;;;1.23;0.40;;;;;;;25.22;35.06;97790.97;4953358;28;20207;-61
2021/01/28 03:32:37;;;;;;;1.23;0.60;;;;;;;25.25;34.95;97793.28;4954682;28;20239;-61
2021/01/28 03:35:05;;;;;;;1.98;0.50;;;;;;;25.22;35.89;97793.66;4953622;28;20202;-61
2021/01/28 03:37:31;;;;;;;1.10;0.57;;;;;;;25.23;35.18;97790.78;4953009;28;20586;-61
2021/01/28 03:39:58;;;;;;;0.70;0.63;;;;;;;25.29;34.88;97798.06;4954088;28;20203;-62
2021/01/28 03:42:24;;;;;;;0.73;0.70;;;;;;;25.31;35.21;97787.16;4953911;28;20249;-61
2021/01/28 03:44:50;;;;;;;0.63;0.40;;;;;;;25.08;36.18;97782.84;4953488;28;20217;-60
2021/01/28 03:47:16;;;;;;;0.93;0.47;;;;;;;25.15;35.85;97776.72;4953932;28;20355;-60
2021/01/28 03:49:42;;;;;;;2.30;0.52;;;;;;;25.26;34.76;97765.47;4952662;28;20566;-60
2021/01/28 03:52:09;;;;;;;1.33;0.50;;;;;;;25.29;35.08;97759.78;4953363;28;20226;-61
2021/01/28 03:54:35;;;;;;;0.90;0.50;;;;;;;25.22;34.93;97742.84;4953043;28;20206;-61
2021/01/28 03:57:02;;;;;;;2.00;0.52;;;;;;;25.24;35.16;97738.09;4953731;28;20203;-61
2021/01/28 03:59:28;;;;;;;1.27;0.50;;;;;;;25.35;34.68;97734.91;4954706;28;20305;-60
2021/01/28 04:01:54;;;;;;;0.50;0.32;;;;;;;25.16;35.87;97725.69;4953895;28;20269;-60
2021/01/28 04:04:20;;;;;;;1.40;0.60;;;;;;;25.24;35.86;97722.06;4953833;28;20226;-59
2021/01/28 04:06:46;;;;;;;0.93;0.47;;;;;;;25.25;35.46;97718.38;4954445;28;20253;-61
2021/01/28 04:09:14;;;;;;;1.23;0.50;;;;;;;25.20;35.34;97720.81;4953830;28;20206;-61
2021/01/28 04:11:40;;;;;;;1.10;0.50;;;;;;;25.17;34.96;97710.50;4954540;28;20227;-61
2021/01/28 04:14:06;;;;;;;0.60;0.43;;;;;;;25.22;35.39;97714.22;4952494;28;20317;-62
2021/01/28 04:16:32;;;;;;;1.33;0.60;;;;;;;25.19;35.29;97701.22;4951860;28;20217;-62
2021/01/28 04:18:58;;;;;;;0.85;0.40;;;;;;;25.12;34.98;97687.81;4952495;28;20353;-62
2021/01/28 04:21:24;;;;;;;1.20;0.65;;;;;;;25.12;35.86;97677.13;4952088;28;20673;-60
2021/01/28 04:23:50;;;;;;;0.85;0.40;;;;;;;25.21;35.27;97675.09;4953457;28;20616;-62
2021/01/28 04:26:17;;;;;;;1.25;0.60;;;;;;;25.06;34.85;97683.28;4953133;28;20265;-62
2021/01/28 04:28:44;;;;;;;1.17;0.40;;;;;;;25.11;35.50;97664.78;4953739;28;20223;-62
2021/01/28 04:31:10;;;;;;;0.95;0.60;;;;;;;25.14;35.51;97657.38;4952740;28;20410;-61
2021/01/28 04:33:36;;;;;;;0.52;0.30;;;;;;;25.17;34.84;97657.00;4952097;28;20669;-61
2021/01/28 04:36:03;;;;;;;2.58;0.40;;;;;;;25.24;35.83;97660.53;4952329;28;20685;-61
2021/01/28 04:38:29;;;;;;;0.40;0.40;;;;;;;25.22;35.73;97642.00;4952968;28;20666;-60
2021/01/28 04:41:05;;;;;;;0.45;0.40;;;;;;;25.13;35.96;97629.81;4952348;28;20214;-61
2021/01/28 04:43:33;;;;;;;1.50;0.45;;;;;;;24.92;36.33;97634.22;4953563;28;20216;-62
2021/01/28 04:46:03;;;;;;;0.60;0.50;;;;;;;25.14;35.36;97630.63;4954883;28;20313;-61
2021/01/28 04:48:31;;;;;;;0.30;0.30;;;;;;;25.23;35.12;97624.09;4953683;28;20231;-62
2021/01/28 04:51:00;;;;;;;2.45;0.60;;;;;;;25.17;36.28;97620.38;4953737;28;20298;-62
2021/01/28 04:53:33;;;;;;;2.08;0.70;;;;;;;25.21;36.10;97629.63;4953606;28;20273;-61
2021/01/28 04:56:04;;;;;;;0.85;0.50;;;;;;;25.34;35.34;97623.56;4954084;28;20293;-61
2021/01/28 04:58:30;;;;;;;1.65;0.65;;;;;;;25.37;35.28;97625.84;4954185;28;20357;-62
2021/01/28 05:00:57;;;;;;;0.50;0.40;;;;;;;25.33;35.53;97613.91;4952265;28;20345;-62
2021/01/28 05:03:27;;;;;;;3.20;0.77;;;;;;;25.42;35.80;97606.53;4952550;28;20261;-62
2021/01/28 05:05:57;;;;;;;0.82;0.43;;;;;;;25.48;34.70;97597.69;4955089;28;20610;-62
2021/01/28 05:08:23;;;;;;;1.65;0.68;;;;;;;25.43;35.36;97598.28;4952948;28;20222;-62
2021/01/28 05:10:51;;;;;;;1.20;0.50;;;;;;;25.40;35.69;97588.00;4952525;28;20211;-61
2021/01/28 05:13:29;;;;;;;3.58;0.60;;;;;;;25.57;35.18;97582.28;4952373;28;20261;-61
2021/01/28 05:15:58;;;;;;;0.93;0.40;;;;;;;25.60;35.55;97576.53;4953277;28;20253;-62
2021/01/28 05:18:34;;;;;;;1.13;0.55;;;;;;;25.54;34.40;97572.78;4952535;28;20207;-62
2021/01/28 05:21:10;;;;;;;2.33;0.47;;;;;;;25.47;34.98;97567.41;4952182;28;20593;-61
2021/01/28 05:23:40;;;;;;;0.68;0.47;;;;;;;25.56;35.17;97564.56;4952694;28;20670;-62
2021/01/28 05:26:30;;;;;;;3.38;0.35;;;;;;;25.58;34.90;97559.81;4953251;28;20247;-63
2021/01/28 05:29:11;;;;;;;1.67;0.57;;;;;;;25.55;35.02;97562.94;4953322;28;20252;-62
2021/01/28 05:31:38;;;;;;;1.35;0.40;;;;;;;25.57;35.11;97552.84;4952882;28;20326;-63
2021/01/28 05:34:07;;;;;;;0.70;0.60;;;;;;;25.68;34.33;97546.91;4951174;28;20206;-62
2021/01/28 05:36:33;;;;;;;1.00;0.38;;;;;;;25.80;34.94;97545.25;4952927;28;20618;-62
2021/01/28 05:39:17;;;;;;;3.17;0.60;;;;;;;25.76;34.94;97546.69;4951124;28;20213;-63
2021/01/28 05:41:46;;;;;;;1.50;0.50;;;;;;;25.72;34.20;97536.59;4952651;28;20706;-62
2021/01/28 05:44:22;;;;;;;1.58;0.50;;;;;;;25.68;34.36;97533.53;4954089;28;20602;-61
2021/01/28 05:47:03;;;;;;;0.40;0.40;;;;;;;25.78;34.08;97525.91;4953447;28;20296;-61
2021/01/28 05:49:30;;;;;;;0.85;0.38;;;;;;;25.78;34.62;97525.91;4953479;28;20277;-60
2021/01/28 05:51:57;;;;;;;1.60;0.57;;;;;;;25.79;34.71;97518.69;4951489;28;20233;-61
2021/01/28 05:54:25;;;;;;;0.55;0.40;;;;;;;25.73;34.51;97511.47;4951155;28;20217;-61
2021/01/28 05:56:58;;;;;;;0.50;0.50;;;;;;;25.81;34.71;97508.59;4952022;28;20667;-62
2021/01/28 05:59:34;;;;;;;4.03;0.50;;;;;;;25.77;35.02;97500.16;4952858;28;20673;-61
2021/01/28 06:02:19;;;;;;;3.13;0.43;;;;;;;25.77;34.89;97497.47;4951970;28;20309;-63
2021/01/28 06:05:00;;;;;;;0.40;0.40;;;;;;;25.83;34.61;97485.94;4953048;28;20212;-61
2021/01/28 06:07:38;;;;;;;0.47;0.30;;;;;;;25.91;34.59;97481.41;4952460;28;20246;-61
2021/01/28 06:10:33;;;;;;;1.00;0.60;;;;;;;25.94;34.25;97481.00;4952175;28;20270;-61
2021/01/28 06:13:17;;;;;;;0.93;0.60;;;;;;;25.95;33.88;97466.59;4947441;28;20659;-62
2021/01/28 06:15:53;;;;;;;0.40;0.32;;;;;;;25.85;33.69;97469.69;4951870;28;20198;-61
2021/01/28 06:19:13;;;;;;;1.33;0.50;;;;;;;25.90;33.19;97466.41;4950838;28;20730;-62
2021/01/28 06:21:55;;;;;;;0.75;0.50;;;;;;;25.82;33.78;97452.16;4952766;28;20641;-62
2021/01/28 06:24:45;;;;;;;1.77;0.52;;;;;;;25.67;34.35;97459.59;4952477;28;20214;-61
2021/01/28 06:27:29;;;;;;;23.20;1.60;;;;;;;25.74;34.08;97447.00;4952497;28;20282;-59
2021/01/28 06:30:10;;;;;;;15.85;1.60;;;;;;;25.93;34.09;97444.53;4952295;28;20289;-62
2021/01/28 06:33:32;;;;;;;18.33;2.38;;;;;;;26.04;35.02;97433.22;4951322;28;20276;-62
2021/01/28 06:36:18;;;;;;;15.07;1.73;;;;;;;25.97;34.93;97424.38;4859602;29;20211;-64
2021/01/28 06:38:59;;;;;;;12.23;1.70;;;;;;;26.13;34.62;97423.09;4951718;28;20210;-62
2021/01/28 06:41:30;;;;;;;10.70;1.30;;;;;;;26.31;34.74;97420.63;4951688;28;20751;-60
2021/01/28 06:44:00;;;;;;;9.98;2.13;;;;;;;26.37;34.75;97418.94;4952868;28;20289;-61
2021/01/28 06:46:37;;;;;;;15.57;2.00;;;;;;;26.42;34.29;97405.75;4951646;28;20692;-63
2021/01/28 06:49:13;;;;;;;14.30;1.65;;;;;;;26.40;34.73;97408.63;4951480;28;20304;-68
2021/01/28 06:51:47;;;;;;;9.05;1.40;;;;;;;26.44;33.95;97402.84;4951576;28;20230;-65
2021/01/28 06:54:20;;;;;;;17.80;1.33;;;;;;;26.51;33.77;97401.78;4950919;28;20202;-64
2021/01/28 06:56:51;;;;;;;6.63;1.10;;;;;;;26.46;34.05;97393.53;4952354;28;20313;-66
2021/01/28 06:59:24;;;;;;;13.18;1.67;;;;;;;26.38;34.71;97391.94;4952344;28;20294;-66
2021/01/28 07:01:59;;;;;;;14.00;2.00;;;;;;;26.56;33.86;97396.63;4952502;28;20227;-66
2021/01/28 07:04:36;;;;;;;7.07;0.80;;;;;;;26.43;34.55;97391.31;4952453;28;20293;-71
2021/01/28 07:07:09;;;;;;;9.40;1.30;;;;;;;26.33;34.61;97382.88;4951901;28;20297;-73
2021/01/28 07:09:41;;;;;;;16.75;1.85;;;;;;;26.56;35.96;97387.72;4951634;28;20663;-68
2021/01/28 07:12:11;;;;;;;24.63;2.10;;;;;;;26.58;35.76;97383.81;4951720;28;20227;-69
2021/01/28 07:14:38;;;;;;;11.35;1.60;;;;;;;26.64;36.60;97384.03;4952708;28;20282;-69
2021/01/28 07:17:11;;;;;;;7.10;1.42;;;;;;;26.48;36.43;97382.63;4950351;28;20257;-67
2021/01/28 07:19:39;;;;;;;13.23;1.75;;;;;;;26.55;36.07;97376.19;4952321;28;20585;-69
2021/01/28 07:22:28;;;;;;;6.75;1.63;;;;;;;26.65;35.65;97369.59;4952388;28;20318;-69
2021/01/28 07:24:55;;;;;;;7.38;1.33;;;;;;;26.56;35.52;97361.78;4947304;28;20242;-67
2021/01/28 07:27:42;;;;;;;7.60;1.25;;;;;;;26.55;35.05;97344.03;4950726;28;20239;-67
2021/01/28 07:30:40;;;;;;;5.80;0.80;;;;;;;26.53;34.77;97343.44;4952733;28;20230;-67
2021/01/28 07:33:28;;;;;;;3.80;1.17;;;;;;;26.55;35.33;97341.34;4955698;28;20286;-67
2021/01/28 07:35:55;;;;;;;5.68;1.70;;;;;;;26.50;34.87;97335.81;4955747;28;20724;-67
2021/01/28 07:38:43;;;;;;;5.38;1.10;;;;;;;26.43;35.73;97334.19;4955252;28;20253;-67
2021/01/28 07:41:22;;;;;;;4.05;1.00;;;;;;;26.38;35.39;97326.81;4954654;28;20242;-67
2021/01/28 07:43:51;;;;;;;6.03;1.30;;;;;;;26.44;34.89;97328.63;4955022;28;20245;-67
2021/01/28 07:46:19;;;;;;;4.60;0.98;;;;;;;26.47;34.98;97324.72;4954376;28;20203;-67
2021/01/28 07:48:47;;;;;;;6.28;1.17;;;;;;;26.59;35.44;97317.63;4952850;28;20314;-68
2021/01/28 07:51:31;;;;;;;7.03;1.55;;;;;;;26.69;35.27;97306.47;4954154;28;20639;-70
2021/01/28 07:53:58;;;;;;;9.32;1.30;;;;;;;26.84;35.32;97298.94;4956628;28;20321;-71
2021/01/28 07:56:45;;;;;;;5.03;1.27;;;;;;;26.69;34.16;97301.09;4956573;28;20203;-70
2021/01/28 07:59:14;;;;;;;6.63;1.27;;;;;;;26.67;34.87;97301.31;4955772;28;20210;-67
2021/01/28 08:01:42;;;;;;;7.15;0.95;;;;;;;26.63;33.92;97291.19;4954127;28;20395;-68
2021/01/28 08:04:16;;;;;;;4.53;1.23;;;;;;;26.55;33.84;97289.63;4953232;28;20246;-71
2021/01/28 08:06:42;;;;;;;6.03;1.15;;;;;;;26.53;34.72;97275.59;4955066;28;20306;-69
2021/01/28 08:09:10;;;;;;;3.60;1.40;;;;;;;26.44;35.00;97274.22;4952733;28;20575;-69
2021/01/28 08:11:38;;;;;;;4.72;1.10;;;;;;;26.40;35.59;97271.94;4990745;23;20264;-68
2021/01/28 08:14:10;;;;;;;4.80;1.00;;;;;;;26.40;34.84;97271.94;4991585;28;20206;-69
2021/01/28 08:16:36;;;;;;;4.60;1.15;;;;;;;26.45;35.03;97268.63;4992766;28;20707;-68
2021/01/28 08:19:09;;;;;;;7.15;1.00;;;;;;;26.43;34.90;97256.47;4991711;28;20269;-69
2021/01/28 08:21:36;;;;;;;5.20;0.93;;;;;;;26.48;35.45;97252.13;4993587;28;20371;-71
2021/01/28 08:24:10;;;;;;;5.00;0.98;;;;;;;26.44;35.66;97247.41;4993312;28;20308;-70
2021/01/28 08:26:39;;;;;;;1.17;0.80;;;;;;;26.40;35.88;97236.31;4992848;28;20263;-68
2021/01/28 08:29:11;;;;;;;2.58;1.00;;;;;;;26.33;35.58;97232.81;4992225;28;20248;-69
2021/01/28 08:31:39;;;;;;;8.02;1.20;;;;;;;26.33;35.91;97228.31;4992980;28;20321;-71
2021/01/28 08:34:07;;;;;;;6.18;1.10;;;;;;;26.32;35.88;97220.47;4992164;28;20217;-70
2021/01/28 08:36:42;;;;;;;2.75;0.90;;;;;;;26.30;35.26;97222.56;4998151;23;20604;-70
2021/01/28 08:39:13;;;;;;;3.78;0.95;;;;;;;26.30;36.37;97217.19;4992683;28;20228;-69
2021/01/28 08:41:40;;;;;;;2.80;1.13;;;;;;;26.36;36.06;97202.91;4992712;28;20665;-70
2021/01/28 08:44:10;;;;;;;2.25;1.02;;;;;;;26.46;36.00;97186.38;4992646;28;20236;-68
2021/01/28 08:46:37;;;;;;;23.50;1.60;;;;;;;26.55;35.06;97185.06;4991907;28;20201;-68
2021/01/28 08:49:07;;;;;;;6.18;0.80;;;;;;;26.49;35.18;97173.34;4993747;28;20367;-67
2021/01/28 08:51:38;;;;;;;3.30;0.68;;;;;;;26.53;35.73;97174.56;4994153;28;20325;-67
2021/01/28 08:54:15;;;;;;;2.30;0.60;;;;;;;26.64;35.41;97169.56;4990366;28;20368;-67
2021/01/28 08:56:42;;;;;;;4.20;1.10;;;;;;;26.70;35.56;97160.66;4989788;28;20491;-67
2021/01/28 08:59:13;;;;;;;2.60;1.13;;;;;;;26.60;35.29;97155.75;4983566;28;20544;-68
2021/01/28 09:01:42;;;;;;;4.25;1.00;;;;;;;26.62;35.72;97155.53;4975045;28;20618;-67
2021/01/28 09:04:12;;;;;;;4.78;1.08;;;;;;;26.59;36.07;97146.88;4983026;28;20218;-70
2021/01/28 09:06:40;;;;;;;3.30;1.00;;;;;;;26.65;35.44;97136.38;4984106;28;20233;-71
2021/01/28 09:09:17;;;;;;;3.88;0.85;;;;;;;26.70;35.63;97141.91;4980767;28;20257;-70
2021/01/28 09:11:43;;;;;;;3.97;0.93;;;;;;;26.57;35.74;97134.75;4977649;28;20804;-68
2021/01/28 09:14:28;;;;;;;3.15;0.80;;;;;;;26.51;34.73;97131.09;4978362;28;20258;-69
2021/01/28 09:16:56;;;;;;;2.92;0.80;;;;;;;26.58;35.65;97123.81;4984839;28;20276;-68
2021/01/28 09:19:23;;;;;;;3.17;0.80;;;;;;;26.68;35.50;97109.94;4981194;28;20332;-67
2021/01/28 09:21:54;;;;;;;4.97;0.90;;;;;;;26.64;35.14;97105.22;4990874;28;20252;-69
2021/01/28 09:24:24;;;;;;;2.53;0.82;;;;;;;26.59;35.15;97111.22;4972010;28;20288;-68
2021/01/28 09:27:14;;;;;;;7.32;0.70;;;;;;;26.66;34.93;97105.81;4974661;28;20232;-71
2021/01/28 09:29:42;;;;;;;1.80;0.70;;;;;;;26.73;35.91;97110.09;4982155;28;20306;-69
2021/01/28 09:32:11;;;;;;;2.70;0.77;;;;;;;26.73;34.14;97094.00;4972423;28;20285;-68
2021/01/28 09:34:37;;;;;;;1.40;0.98;;;;;;;26.07;31.75;97095.34;4985275;28;20236;-69
2021/01/28 09:37:07;;;;;;;3.28;0.70;;;;;;;25.82;32.13;97092.59;4991091;23;20328;-67
2021/01/28 09:39:40;;;;;;;0.80;0.75;;;;;;;25.49;31.16;97097.06;4991038;28;20194;-70
2021/01/28 09:42:25;;;;;;;1.13;0.63;;;;;;;25.20;32.03;97084.22;4992831;28;20308;-68
2021/01/28 09:44:53;;;;;;;5.07;1.17;;;;;;;25.56;31.52;97080.16;4992024;28;20577;-68
2021/01/28 09:47:22;;;;;;;3.53;0.80;;;;;;;25.79;31.75;97071.59;4991751;28;20213;-69
2021/01/28 09:49:50;;;;;;;4.00;0.65;;;;;;;25.89;32.36;97060.41;4992843;28;20212;-68
2021/01/28 09:52:21;;;;;;;1.48;0.60;;;;;;;26.04;33.25;97063.63;4991873;28;20253;-69
2021/01/28 09:54:50;;;;;;;1.63;0.63;;;;;;;26.07;32.93;97070.44;4987860;28;20637;-68
2021/01/28 09:57:17;;;;;;;3.97;0.90;;;;;;;26.08;33.18;97074.72;4983076;23;20229;-68
2021/01/28 09:59:43;;;;;;;1.15;0.70;;;;;;;26.10;33.41;97078.03;4970098;28;20269;-68
2021/01/28 10:02:15;;;;;;;1.58;0.52;;;;;;;26.22;33.59;97081.63;4971662;28;20218;-69
2021/01/28 10:04:43;;;;;;;1.98;0.60;;;;;;;26.31;33.91;97084.84;4971464;28;20248;-67
2021/01/28 10:07:09;;;;;;;6.13;0.88;;;;;;;26.39;34.07;97066.63;4988177;28;20259;-67
2021/01/28 10:09:36;;;;;;;2.75;0.90;;;;;;;26.45;33.16;97061.47;4990573;28;20669;-67
2021/01/28 10:12:03;;;;;;;4.38;0.82;;;;;;;26.15;32.01;97064.81;4990859;28;20229;-69
2021/01/28 10:14:29;;;;;;;2.20;0.93;;;;;;;26.11;32.09;97064.41;4989887;28;20201;-69
2021/01/28 10:16:55;;;;;;;2.70;0.60;;;;;;;26.17;32.61;97066.22;4988165;28;20209;-67
2021/01/28 10:19:22;;;;;;;9.52;1.45;;;;;;;26.22;33.14;97069.06;4989800;28;20230;-68
2021/01/28 10:21:48;;;;;;;1.13;0.60;;;;;;;26.27;33.73;97070.28;4989616;28;20232;-67
2021/01/28 10:24:14;;;;;;;1.92;0.65;;;;;;;26.31;33.51;97066.09;4988571;28;20201;-67
2021/01/28 10:26:41;;;;;;;2.22;0.52;;;;;;;26.36;33.79;97060.91;4987047;28;20224;-68
2021/01/28 10:29:07;;;;;;;2.60;0.65;;;;;;;26.42;33.92;97065.41;4989921;28;20237;-70
2021/01/28 10:31:34;;;;;;;2.60;0.73;;;;;;;26.24;33.83;97060.00;4989221;28;20573;-66
2021/01/28 10:34:00;;;;;;;6.47;0.60;;;;;;;26.13;34.14;97058.81;4990582;28;20208;-68
2021/01/28 10:36:27;;;;;;;1.15;0.63;;;;;;;26.04;34.83;97060.94;4991246;28;20201;-68
2021/01/28 10:38:54;;;;;;;2.35;0.63;;;;;;;26.08;34.52;97064.84;4989215;28;20229;-70
2021/01/28 10:41:20;;;;;;;3.63;0.68;;;;;;;26.18;34.83;97059.81;4987884;28;20646;-68
2021/01/28 10:43:47;;;;;;;3.42;0.50;;;;;;;26.27;34.62;97046.97;4974962;28;20279;-66
2021/01/28 10:46:13;;;;;;;1.15;0.50;;;;;;;26.35;33.83;97043.22;4990270;28;20205;-67
2021/01/28 10:48:39;;;;;;;2.30;0.70;;;;;;;26.40;34.27;97035.31;4971047;28;20230;-65
2021/01/28 10:51:06;;;;;;;1.23;0.60;;;;;;;26.44;34.35;97041.06;4970694;28;20279;-65
2021/01/28 10:53:36;;;;;;;1.90;0.60;;;;;;;26.48;33.73;97029.69;4988529;28;20344;-66
2021/01/28 10:56:02;;;;;;;0.60;0.60;;;;;;;26.59;33.77;97023.56;4991830;28;20716;-66
2021/01/28 10:58:28;;;;;;;1.38;0.63;;;;;;;26.69;33.47;97027.66;4988323;28;20224;-67
2021/01/28 11:00:56;;;;;;;3.15;0.80;;;;;;;26.66;33.95;97020.03;4988900;28;20349;-65
2021/01/28 11:03:22;;;;;;;8.90;0.73;;;;;;;26.59;33.98;97020.88;4989375;28;20204;-68
2021/01/28 11:05:50;;;;;;;0.75;0.50;;;;;;;26.71;33.65;97009.47;4994925;28;20213;-70
2021/01/28 11:08:16;;;;;;;2.45;0.63;;;;;;;26.73;34.04;96999.34;4994047;28;20295;-67
2021/01/28 11:10:44;;;;;;;2.15;0.50;;;;;;;26.66;33.86;96995.91;4994649;28;20220;-68
2021/01/28 11:13:10;;;;;;;1.05;0.50;;;;;;;26.51;33.49;96988.22;4992362;28;20316;-67
2021/01/28 11:15:37;;;;;;;2.72;0.40;;;;;;;26.54;34.39;96977.84;4991952;28;20202;-68
2021/01/28 11:18:05;;;;;;;2.08;0.60;;;;;;;26.56;34.40;96975.78;4993189;28;20290;-68
2021/01/28 11:20:32;;;;;;;3.35;0.60;;;;;;;26.64;33.83;96973.88;4993601;28;20315;-67
2021/01/28 11:22:59;;;;;;;1.92;0.55;;;;;;;26.64;33.77;96961.28;4992818;28;20256;-68
2021/01/28 11:25:26;;;;;;;2.97;0.85;;;;;;;26.70;33.76;96938.16;4991028;28;20688;-67
2021/01/28 11:27:54;;;;;;;3.33;0.60;;;;;;;26.81;34.81;96939.25;4991886;28;20637;-68
2021/01/28 11:30:23;;;;;;;8.13;0.85;;;;;;;26.86;35.20;96945.59;4990804;28;20618;-68
2021/01/28 11:32:50;;;;;;;3.90;0.60;;;;;;;27.08;36.01;96931.66;4991835;28;20297;-68
2021/01/28 11:35:19;;;;;;;2.25;0.52;;;;;;;27.23;36.04;96932.09;4992444;28;20238;-66
2021/01/28 11:37:46;;;;;;;4.18;0.60;;;;;;;27.16;34.93;96925.97;4994154;28;20205;-65
2021/01/28 11:40:14;;;;;;;2.25;0.70;;;;;;;27.18;35.86;96931.13;4992871;28;20208;-65
2021/01/28 11:42:40;;;;;;;2.50;0.63;;;;;;;27.15;35.79;96932.41;4993426;28;20312;-66
2021/01/28 11:45:09;;;;;;;1.23;0.50;;;;;;;27.05;35.52;96934.81;4991179;28;20293;-66
2021/01/28 11:47:37;;;;;;;6.65;1.20;;;;;;;27.11;35.50;96923.16;4991721;28;20288;-64